sensor_id;sensor_type;location;lat;lon;timestamp;pressure;altitude;pressure_sealevel;temperature;humidity
58295;BME280;45705;55.592;37.460;2024-03-22T00:00:43;99547.31;;;-0.15;60.14
58295;BME280;45705;55.592;37.460;2024-03-22T00:03:08;99546.16;;;-0.19;60.68
58295;BME280;45705;55.592;37.460;2024-03-22T00:05:34;99554.94;;;-0.30;61.16
58295;BME280;45705;55.592;37.460;2024-03-22T00:08:00;99547.31;;;-0.15;60.61
58295;BME280;45705;55.592;37.460;2024-03-22T00:10:26;99547.53;;;-0.16;60.64
58295;BME280;45705;55.592;37.460;2024-03-22T00:12:52;99551.75;;;-0.09;60.23
58295;BME280;45705;55.592;37.460;2024-03-22T00:15:17;99556.66;;;-0.06;60.27
58295;BME280;45705;55.592;37.460;2024-03-22T00:17:44;99545.41;;;-0.26;60.23
58295;BME280;45705;55.592;37.460;2024-03-22T00:20:10;99541.78;;;-0.32;61.15
58295;BME280;45705;55.592;37.460;2024-03-22T00:22:36;99541.72;;;-0.55;61.78
58295;BME280;45705;55.592;37.460;2024-03-22T00:25:02;99537.22;;;-0.43;61.99
58295;BME280;45705;55.592;37.460;2024-03-22T00:27:29;99532.19;;;-0.51;62.14
58295;BME280;45705;55.592;37.460;2024-03-22T00:29:55;99538.81;;;-0.54;62.18
58295;BME280;45705;55.592;37.460;2024-03-22T00:34:55;99540.16;;;-0.63;62.36
58295;BME280;45705;55.592;37.460;2024-03-22T00:37:21;99540.16;;;-0.63;62.56
58295;BME280;45705;55.592;37.460;2024-03-22T00:39:47;99535.56;;;-0.56;62.33
58295;BME280;45705;55.592;37.460;2024-03-22T00:42:13;99536.00;;;-0.59;61.85
58295;BME280;45705;55.592;37.460;2024-03-22T00:44:39;99539.41;;;-0.70;62.05
58295;BME280;45705;55.592;37.460;2024-03-22T00:47:04;99536.84;;;-0.95;62.79
58295;BME280;45705;55.592;37.460;2024-03-22T00:49:31;99532.63;;;-0.85;62.73
58295;BME280;45705;55.592;37.460;2024-03-22T00:51:57;99544.47;;;-0.81;62.62
58295;BME280;45705;55.592;37.460;2024-03-22T00:54:23;99544.47;;;-0.99;62.88
58295;BME280;45705;55.592;37.460;2024-03-22T00:56:49;99545.22;;;-0.73;61.90
58295;BME280;45705;55.592;37.460;2024-03-22T00:59:14;99530.97;;;-0.86;61.78
58295;BME280;45705;55.592;37.460;2024-03-22T01:01:40;99538.41;;;-0.88;61.88
58295;BME280;45705;55.592;37.460;2024-03-22T01:04:06;99536.31;;;-0.86;62.01
58295;BME280;45705;55.592;37.460;2024-03-22T01:06:34;99523.72;;;-0.97;62.44
58295;BME280;45705;55.592;37.460;2024-03-22T01:09:00;99498.09;;;-1.16;62.67
58295;BME280;45705;55.592;37.460;2024-03-22T01:11:26;99509.22;;;-1.20;63.47
58295;BME280;45705;55.592;37.460;2024-03-22T01:13:52;99527.28;;;-1.03;63.17
58295;BME280;45705;55.592;37.460;2024-03-22T01:16:17;99522.25;;;-1.11;63.53
58295;BME280;45705;55.592;37.460;2024-03-22T01:18:43;99513.75;;;-1.20;63.60
58295;BME280;45705;55.592;37.460;2024-03-22T01:21:09;99519.88;;;-1.01;63.24
58295;BME280;45705;55.592;37.460;2024-03-22T01:23:35;99519.13;;;-0.90;63.33
58295;BME280;45705;55.592;37.460;2024-03-22T01:26:01;99515.72;;;-0.78;62.83
58295;BME280;45705;55.592;37.460;2024-03-22T01:28:27;99519.28;;;-1.03;63.63
58295;BME280;45705;55.592;37.460;2024-03-22T01:30:52;99515.94;;;-1.17;64.38
58295;BME280;45705;55.592;37.460;2024-03-22T01:33:18;99512.91;;;-1.21;64.81
58295;BME280;45705;55.592;37.460;2024-03-22T01:35:44;99506.25;;;-1.30;65.71
58295;BME280;45705;55.592;37.460;2024-03-22T01:38:10;99511.72;;;-1.25;65.79
58295;BME280;45705;55.592;37.460;2024-03-22T01:40:36;99500.09;;;-1.49;66.65
58295;BME280;45705;55.592;37.460;2024-03-22T01:43:02;99499.50;;;-1.32;67.12
58295;BME280;45705;55.592;37.460;2024-03-22T01:45:32;99452.69;;;-1.47;67.28
58295;BME280;45705;55.592;37.460;2024-03-22T01:47:59;99487.22;;;-1.33;67.63
58295;BME280;45705;55.592;37.460;2024-03-22T01:50:25;99489.63;;;-1.32;68.20
58295;BME280;45705;55.592;37.460;2024-03-22T01:52:51;99487.88;;;-1.20;67.90
58295;BME280;45705;55.592;37.460;2024-03-22T01:55:18;99480.91;;;-1.21;67.66
58295;BME280;45705;55.592;37.460;2024-03-22T01:57:47;99486.22;;;-1.21;68.01
58295;BME280;45705;55.592;37.460;2024-03-22T02:00:15;99494.41;;;-1.15;68.32
58295;BME280;45705;55.592;37.460;2024-03-22T02:02:41;99480.75;;;-1.26;68.28
58295;BME280;45705;55.592;37.460;2024-03-22T02:05:17;99480.22;;;-1.34;68.79
58295;BME280;45705;55.592;37.460;2024-03-22T02:07:45;99492.59;;;-1.40;69.98
58295;BME280;45705;55.592;37.460;2024-03-22T02:10:12;99465.50;;;-1.37;69.44
58295;BME280;45705;55.592;37.460;2024-03-22T02:12:39;99476.28;;;-1.32;70.00
58295;BME280;45705;55.592;37.460;2024-03-22T02:15:08;99474.81;;;-1.46;70.37
58295;BME280;45705;55.592;37.460;2024-03-22T02:17:35;99469.69;;;-1.48;71.24
58295;BME280;45705;55.592;37.460;2024-03-22T02:20:02;99468.59;;;-1.59;71.71
58295;BME280;45705;55.592;37.460;2024-03-22T02:22:31;99469.84;;;-1.61;72.02
58295;BME280;45705;55.592;37.460;2024-03-22T02:24:57;99472.16;;;-1.46;72.38
58295;BME280;45705;55.592;37.460;2024-03-22T02:27:25;99469.31;;;-1.51;72.36
58295;BME280;45705;55.592;37.460;2024-03-22T02:29:51;99460.44;;;-1.64;72.78
58295;BME280;45705;55.592;37.460;2024-03-22T02:32:17;99465.47;;;-1.74;73.86
58295;BME280;45705;55.592;37.460;2024-03-22T02:34:43;99469.81;;;-1.80;74.55
58295;BME280;45705;55.592;37.460;2024-03-22T02:37:09;99469.72;;;-1.91;75.56
58295;BME280;45705;55.592;37.460;2024-03-22T02:39:34;99462.03;;;-1.81;75.70
58295;BME280;45705;55.592;37.460;2024-03-22T02:42:00;99471.94;;;-1.88;76.08
58295;BME280;45705;55.592;37.460;2024-03-22T02:44:26;99470.47;;;-1.84;76.43
58295;BME280;45705;55.592;37.460;2024-03-22T02:46:52;99438.34;;;-1.89;75.62
58295;BME280;45705;55.592;37.460;2024-03-22T02:49:18;99456.50;;;-1.80;76.12
58295;BME280;45705;55.592;37.460;2024-03-22T02:51:44;99461.88;;;-1.86;77.06
58295;BME280;45705;55.592;37.460;2024-03-22T02:54:10;99456.63;;;-1.93;77.47
58295;BME280;45705;55.592;37.460;2024-03-22T02:56:36;99454.16;;;-1.94;78.11
58295;BME280;45705;55.592;37.460;2024-03-22T02:59:01;99447.28;;;-2.02;78.68
58295;BME280;45705;55.592;37.460;2024-03-22T03:01:27;99439.75;;;-1.87;78.41
58295;BME280;45705;55.592;37.460;2024-03-22T03:03:53;99436.88;;;-1.85;78.42
58295;BME280;45705;55.592;37.460;2024-03-22T03:06:19;99441.69;;;-1.75;78.47
58295;BME280;45705;55.592;37.460;2024-03-22T03:08:46;99439.69;;;-1.80;78.89
58295;BME280;45705;55.592;37.460;2024-03-22T03:11:13;99438.56;;;-1.91;78.89
58295;BME280;45705;55.592;37.460;2024-03-22T03:13:39;99444.38;;;-2.01;80.18
58295;BME280;45705;55.592;37.460;2024-03-22T03:16:05;99441.16;;;-1.84;79.86
58295;BME280;45705;55.592;37.460;2024-03-22T03:18:31;99446.34;;;-1.89;79.73
58295;BME280;45705;55.592;37.460;2024-03-22T03:20:57;99443.84;;;-1.66;78.92
58295;BME280;45705;55.592;37.460;2024-03-22T03:23:22;99436.28;;;-1.69;78.54
58295;BME280;45705;55.592;37.460;2024-03-22T03:25:48;99433.47;;;-1.55;78.26
58295;BME280;45705;55.592;37.460;2024-03-22T03:28:14;99439.53;;;-1.67;78.32
58295;BME280;45705;55.592;37.460;2024-03-22T03:30:40;99429.59;;;-1.96;79.84
58295;BME280;45705;55.592;37.460;2024-03-22T03:33:06;99434.72;;;-1.95;80.79
58295;BME280;45705;55.592;37.460;2024-03-22T03:35:31;99431.06;;;-2.01;80.89
58295;BME280;45705;55.592;37.460;2024-03-22T03:37:57;99420.44;;;-1.82;80.82
58295;BME280;45705;55.592;37.460;2024-03-22T03:40:23;99419.19;;;-1.80;81.07
58295;BME280;45705;55.592;37.460;2024-03-22T03:42:50;99423.97;;;-1.88;81.02
58295;BME280;45705;55.592;37.460;2024-03-22T03:45:16;99425.03;;;-1.89;81.04
58295;BME280;45705;55.592;37.460;2024-03-22T03:47:42;99396.81;;;-1.79;80.92
58295;BME280;45705;55.592;37.460;2024-03-22T03:50:08;99419.25;;;-1.49;79.64
58295;BME280;45705;55.592;37.460;2024-03-22T03:52:34;99411.88;;;-1.47;78.52
58295;BME280;45705;55.592;37.460;2024-03-22T03:54:59;99422.53;;;-1.47;78.58
58295;BME280;45705;55.592;37.460;2024-03-22T03:57:25;99414.56;;;-1.17;77.54
58295;BME280;45705;55.592;37.460;2024-03-22T03:59:51;99426.22;;;-1.48;78.28
58295;BME280;45705;55.592;37.460;2024-03-22T04:02:17;99420.13;;;-1.19;78.53
58295;BME280;45705;55.592;37.460;2024-03-22T04:04:43;99407.19;;;-0.31;74.58
58295;BME280;45705;55.592;37.460;2024-03-22T04:07:09;99410.09;;;0.15;69.76
58295;BME280;45705;55.592;37.460;2024-03-22T04:09:35;99402.53;;;0.76;67.59
58295;BME280;45705;55.592;37.460;2024-03-22T04:12:01;99400.03;;;0.57;65.94
58295;BME280;45705;55.592;37.460;2024-03-22T04:14:26;99396.50;;;-0.19;69.40
58295;BME280;45705;55.592;37.460;2024-03-22T04:16:53;99368.75;;;-0.84;72.72
58295;BME280;45705;55.592;37.460;2024-03-22T04:19:22;99397.31;;;-0.72;72.70
58295;BME280;45705;55.592;37.460;2024-03-22T04:21:49;99392.91;;;-0.78;74.22
58295;BME280;45705;55.592;37.460;2024-03-22T04:24:15;99403.63;;;-0.55;73.33
58295;BME280;45705;55.592;37.460;2024-03-22T04:26:41;99402.66;;;-0.30;73.06
58295;BME280;45705;55.592;37.460;2024-03-22T04:29:06;99388.59;;;0.10;70.62
58295;BME280;45705;55.592;37.460;2024-03-22T04:31:32;99389.28;;;-0.07;69.75
58295;BME280;45705;55.592;37.460;2024-03-22T04:33:58;99397.22;;;0.00;70.56
58295;BME280;45705;55.592;37.460;2024-03-22T04:36:24;99395.44;;;-0.18;70.47
58295;BME280;45705;55.592;37.460;2024-03-22T04:38:49;99399.53;;;-0.04;69.81
58295;BME280;45705;55.592;37.460;2024-03-22T04:41:15;99388.97;;;0.54;67.51
58295;BME280;45705;55.592;37.460;2024-03-22T04:43:41;99401.59;;;1.11;64.45
58295;BME280;45705;55.592;37.460;2024-03-22T04:46:07;99385.19;;;1.70;61.93
58295;BME280;45705;55.592;37.460;2024-03-22T04:48:32;99395.31;;;2.41;57.50
58295;BME280;45705;55.592;37.460;2024-03-22T04:50:58;99394.25;;;4.10;53.19
58295;BME280;45705;55.592;37.460;2024-03-22T04:53:24;99388.72;;;4.85;50.45
58295;BME280;45705;55.592;37.460;2024-03-22T04:55:50;99388.63;;;4.64;48.95
58295;BME280;45705;55.592;37.460;2024-03-22T04:58:20;99361.81;;;5.92;47.52
58295;BME280;45705;55.592;37.460;2024-03-22T05:00:48;99381.28;;;6.00;46.43
58295;BME280;45705;55.592;37.460;2024-03-22T05:03:15;99376.66;;;6.96;44.24
58295;BME280;45705;55.592;37.460;2024-03-22T05:05:42;99366.72;;;7.26;42.60
58295;BME280;45705;55.592;37.460;2024-03-22T05:08:08;99361.78;;;8.55;41.28
58295;BME280;45705;55.592;37.460;2024-03-22T05:10:35;99356.28;;;8.60;40.40
58295;BME280;45705;55.592;37.460;2024-03-22T05:13:01;99352.28;;;9.15;38.56
58295;BME280;45705;55.592;37.460;2024-03-22T05:15:27;99353.16;;;8.91;38.75
58295;BME280;45705;55.592;37.460;2024-03-22T05:17:57;99362.44;;;7.88;40.26
58295;BME280;45705;55.592;37.460;2024-03-22T05:20:23;99359.59;;;7.40;41.76
58295;BME280;45705;55.592;37.460;2024-03-22T05:22:48;99357.38;;;8.06;40.74
58295;BME280;45705;55.592;37.460;2024-03-22T05:25:14;99349.38;;;7.96;40.88
58295;BME280;45705;55.592;37.460;2024-03-22T05:27:41;99351.47;;;8.76;39.89
58295;BME280;45705;55.592;37.460;2024-03-22T05:30:08;99343.47;;;9.42;37.93
58295;BME280;45705;55.592;37.460;2024-03-22T05:32:35;99345.50;;;9.17;38.17
58295;BME280;45705;55.592;37.460;2024-03-22T05:35:01;99350.09;;;10.15;36.74
58295;BME280;45705;55.592;37.460;2024-03-22T05:37:26;99345.78;;;9.35;37.75
58295;BME280;45705;55.592;37.460;2024-03-22T05:39:52;99350.81;;;9.74;37.54
58295;BME280;45705;55.592;37.460;2024-03-22T05:42:18;99339.88;;;11.04;35.39
58295;BME280;45705;55.592;37.460;2024-03-22T05:44:47;99340.38;;;9.49;36.88
58295;BME280;45705;55.592;37.460;2024-03-22T05:47:13;99337.84;;;10.18;36.86
58295;BME280;45705;55.592;37.460;2024-03-22T05:49:39;99328.09;;;11.31;34.56
58295;BME280;45705;55.592;37.460;2024-03-22T05:52:05;99330.97;;;9.60;36.95
58295;BME280;45705;55.592;37.460;2024-03-22T05:54:30;99327.41;;;9.78;36.97
58295;BME280;45705;55.592;37.460;2024-03-22T05:56:56;99323.38;;;11.46;34.76
58295;BME280;45705;55.592;37.460;2024-03-22T05:59:22;99327.50;;;11.34;34.27
58295;BME280;45705;55.592;37.460;2024-03-22T06:01:48;99325.59;;;11.89;33.47
58295;BME280;45705;55.592;37.460;2024-03-22T06:04:13;99324.44;;;11.81;33.64
58295;BME280;45705;55.592;37.460;2024-03-22T06:06:39;99314.22;;;12.84;31.77
58295;BME280;45705;55.592;37.460;2024-03-22T06:09:05;99302.75;;;13.87;31.21
58295;BME280;45705;55.592;37.460;2024-03-22T06:11:36;99313.44;;;15.41;28.36
58295;BME280;45705;55.592;37.460;2024-03-22T06:14:02;99314.53;;;14.85;28.98
58295;BME280;45705;55.592;37.460;2024-03-22T06:16:28;99322.53;;;14.31;29.72
58295;BME280;45705;55.592;37.460;2024-03-22T06:18:54;99303.00;;;14.11;29.76
58295;BME280;45705;55.592;37.460;2024-03-22T06:21:19;99305.19;;;13.79;30.11
58295;BME280;45705;55.592;37.460;2024-03-22T06:23:49;99300.75;;;14.43;29.26
58295;BME280;45705;55.592;37.460;2024-03-22T06:26:15;99296.09;;;13.06;30.87
58295;BME280;45705;55.592;37.460;2024-03-22T06:28:41;99300.25;;;12.94;31.37
58295;BME280;45705;55.592;37.460;2024-03-22T06:31:07;99277.75;;;13.67;30.46
58295;BME280;45705;55.592;37.460;2024-03-22T06:33:33;99288.03;;;13.53;29.73
58295;BME280;45705;55.592;37.460;2024-03-22T06:35:59;99288.69;;;12.63;31.88
58295;BME280;45705;55.592;37.460;2024-03-22T06:38:25;99298.16;;;13.61;30.87
58295;BME280;45705;55.592;37.460;2024-03-22T06:40:51;99287.34;;;13.73;30.27
58295;BME280;45705;55.592;37.460;2024-03-22T06:43:17;99297.16;;;15.02;29.09
58295;BME280;45705;55.592;37.460;2024-03-22T06:45:42;99288.69;;;16.81;27.08
58295;BME280;45705;55.592;37.460;2024-03-22T06:48:08;99288.38;;;15.51;27.55
58295;BME280;45705;55.592;37.460;2024-03-22T06:50:34;99293.75;;;14.54;29.32
58295;BME280;45705;55.592;37.460;2024-03-22T06:52:59;99283.69;;;16.59;27.24
58295;BME280;45705;55.592;37.460;2024-03-22T06:55:25;99295.09;;;13.71;30.36
58295;BME280;45705;55.592;37.460;2024-03-22T06:57:51;99293.72;;;13.95;30.19
58295;BME280;45705;55.592;37.460;2024-03-22T07:00:18;99287.72;;;13.63;30.37
58295;BME280;45705;55.592;37.460;2024-03-22T07:02:44;99282.94;;;13.98;29.81
58295;BME280;45705;55.592;37.460;2024-03-22T07:05:10;99275.66;;;15.46;28.75
58295;BME280;45705;55.592;37.460;2024-03-22T07:07:37;99278.69;;;14.48;28.91
58295;BME280;45705;55.592;37.460;2024-03-22T07:10:03;99280.00;;;14.72;29.45
58295;BME280;45705;55.592;37.460;2024-03-22T07:12:31;99277.50;;;14.79;29.03
58295;BME280;45705;55.592;37.460;2024-03-22T07:14:59;99280.38;;;14.32;29.44
58295;BME280;45705;55.592;37.460;2024-03-22T07:17:26;99275.34;;;14.04;29.95
58295;BME280;45705;55.592;37.460;2024-03-22T07:19:53;99282.44;;;13.06;31.38
58295;BME280;45705;55.592;37.460;2024-03-22T07:22:20;99279.88;;;13.09;31.08
58295;BME280;45705;55.592;37.460;2024-03-22T07:24:46;99277.75;;;12.05;33.30
58295;BME280;45705;55.592;37.460;2024-03-22T07:27:13;99269.69;;;11.60;33.79
58295;BME280;45705;55.592;37.460;2024-03-22T07:29:41;99267.25;;;11.58;33.42
58295;BME280;45705;55.592;37.460;2024-03-22T07:32:06;99268.78;;;12.88;32.85
58295;BME280;45705;55.592;37.460;2024-03-22T07:34:32;99255.38;;;11.86;33.35
58295;BME280;45705;55.592;37.460;2024-03-22T07:36:58;99262.63;;;10.41;35.37
58295;BME280;45705;55.592;37.460;2024-03-22T07:39:24;99257.78;;;11.25;34.65
58295;BME280;45705;55.592;37.460;2024-03-22T07:41:51;99252.59;;;11.46;34.39
58295;BME280;45705;55.592;37.460;2024-03-22T07:44:17;99249.84;;;11.68;34.20
58295;BME280;45705;55.592;37.460;2024-03-22T07:46:46;99260.00;;;10.63;35.28
58295;BME280;45705;55.592;37.460;2024-03-22T07:49:12;99257.63;;;10.20;36.12
58295;BME280;45705;55.592;37.460;2024-03-22T07:51:38;99251.75;;;11.14;35.01
58295;BME280;45705;55.592;37.460;2024-03-22T07:54:05;99251.25;;;9.56;36.75
58295;BME280;45705;55.592;37.460;2024-03-22T07:56:31;99240.41;;;9.23;37.07
58295;BME280;45705;55.592;37.460;2024-03-22T07:58:57;99246.38;;;8.06;38.86
58295;BME280;45705;55.592;37.460;2024-03-22T08:01:23;99248.81;;;9.07;37.83
58295;BME280;45705;55.592;37.460;2024-03-22T08:03:50;99245.38;;;8.83;37.84
58295;BME280;45705;55.592;37.460;2024-03-22T08:06:16;99241.22;;;7.85;39.62
58295;BME280;45705;55.592;37.460;2024-03-22T08:08:42;99245.22;;;7.64;40.75
58295;BME280;45705;55.592;37.460;2024-03-22T08:11:08;99241.19;;;6.63;42.57
58295;BME280;45705;55.592;37.460;2024-03-22T08:13:35;99231.06;;;6.35;43.58
58295;BME280;45705;55.592;37.460;2024-03-22T08:16:01;99226.63;;;6.54;43.20
58295;BME280;45705;55.592;37.460;2024-03-22T08:18:27;99228.47;;;6.64;43.19
58295;BME280;45705;55.592;37.460;2024-03-22T08:20:53;99220.09;;;6.10;43.93
58295;BME280;45705;55.592;37.460;2024-03-22T08:23:18;99222.63;;;5.81;44.14
58295;BME280;45705;55.592;37.460;2024-03-22T08:25:46;99210.19;;;5.90;44.57
58295;BME280;45705;55.592;37.460;2024-03-22T08:28:12;99200.50;;;5.84;44.54
58295;BME280;45705;55.592;37.460;2024-03-22T08:30:39;99210.47;;;5.99;44.90
58295;BME280;45705;55.592;37.460;2024-03-22T08:33:05;99207.50;;;5.96;44.59
58295;BME280;45705;55.592;37.460;2024-03-22T08:35:31;99201.06;;;5.71;43.87
58295;BME280;45705;55.592;37.460;2024-03-22T08:37:57;99192.31;;;6.10;43.48
58295;BME280;45705;55.592;37.460;2024-03-22T08:40:22;99199.34;;;6.11;44.11
58295;BME280;45705;55.592;37.460;2024-03-22T08:42:48;99200.06;;;5.46;45.20
58295;BME280;45705;55.592;37.460;2024-03-22T08:45:14;99189.38;;;5.91;45.21
58295;BME280;45705;55.592;37.460;2024-03-22T08:47:42;99189.00;;;6.28;44.07
58295;BME280;45705;55.592;37.460;2024-03-22T08:50:09;99187.28;;;6.38;43.83
58295;BME280;45705;55.592;37.460;2024-03-22T08:52:34;99173.78;;;5.88;44.32
58295;BME280;45705;55.592;37.460;2024-03-22T08:55:01;99179.66;;;6.50;44.15
58295;BME280;45705;55.592;37.460;2024-03-22T08:57:28;99165.56;;;6.58;43.98
58295;BME280;45705;55.592;37.460;2024-03-22T08:59:54;99170.66;;;6.20;44.30
58295;BME280;45705;55.592;37.460;2024-03-22T09:02:20;99165.22;;;6.30;43.95
58295;BME280;45705;55.592;37.460;2024-03-22T09:04:46;99168.94;;;6.40;44.02
58295;BME280;45705;55.592;37.460;2024-03-22T09:07:12;99173.16;;;6.51;44.34
58295;BME280;45705;55.592;37.460;2024-03-22T09:09:38;99155.59;;;6.54;43.97
58295;BME280;45705;55.592;37.460;2024-03-22T09:12:04;99149.34;;;6.58;43.64
58295;BME280;45705;55.592;37.460;2024-03-22T09:14:29;99139.88;;;6.21;44.23
58295;BME280;45705;55.592;37.460;2024-03-22T09:16:56;99148.16;;;6.75;43.08
58295;BME280;45705;55.592;37.460;2024-03-22T09:19:21;99152.97;;;6.43;43.51
58295;BME280;45705;55.592;37.460;2024-03-22T09:21:47;99139.59;;;6.62;43.22
58295;BME280;45705;55.592;37.460;2024-03-22T09:24:13;99140.28;;;7.07;42.52
58295;BME280;45705;55.592;37.460;2024-03-22T09:26:38;99135.75;;;6.68;42.60
58295;BME280;45705;55.592;37.460;2024-03-22T09:29:04;99129.41;;;6.49;42.34
58295;BME280;45705;55.592;37.460;2024-03-22T09:31:30;99136.88;;;6.62;42.50
58295;BME280;45705;55.592;37.460;2024-03-22T09:33:58;99137.81;;;6.82;42.07
58295;BME280;45705;55.592;37.460;2024-03-22T09:36:23;99138.19;;;6.70;41.91
58295;BME280;45705;55.592;37.460;2024-03-22T09:38:50;99136.16;;;6.86;41.87
58295;BME280;45705;55.592;37.460;2024-03-22T09:41:23;99130.84;;;7.05;41.05
58295;BME280;45705;55.592;37.460;2024-03-22T09:43:51;99108.66;;;7.32;41.53
58295;BME280;45705;55.592;37.460;2024-03-22T09:46:18;99123.63;;;7.48;41.30
58295;BME280;45705;55.592;37.460;2024-03-22T09:48:47;99124.63;;;7.77;41.42
58295;BME280;45705;55.592;37.460;2024-03-22T09:51:15;99137.09;;;7.54;40.30
58295;BME280;45705;55.592;37.460;2024-03-22T09:53:44;99122.72;;;7.77;40.71
58295;BME280;45705;55.592;37.460;2024-03-22T09:56:14;99127.38;;;7.96;40.56
58295;BME280;45705;55.592;37.460;2024-03-22T09:58:43;99118.22;;;7.48;40.50
58295;BME280;45705;55.592;37.460;2024-03-22T10:01:10;99114.53;;;7.39;40.83
58295;BME280;45705;55.592;37.460;2024-03-22T10:03:37;99121.91;;;7.34;41.45
58295;BME280;45705;55.592;37.460;2024-03-22T10:06:06;99105.22;;;7.51;41.31
58295;BME280;45705;55.592;37.460;2024-03-22T10:08:32;99112.88;;;7.86;41.21
58295;BME280;45705;55.592;37.460;2024-03-22T10:11:02;99113.34;;;8.13;40.39
58295;BME280;45705;55.592;37.460;2024-03-22T10:13:28;99111.19;;;8.09;40.32
58295;BME280;45705;55.592;37.460;2024-03-22T10:15:56;99106.22;;;7.98;40.64
58295;BME280;45705;55.592;37.460;2024-03-22T10:18:22;99111.56;;;8.03;40.39
58295;BME280;45705;55.592;37.460;2024-03-22T10:21:01;99102.94;;;8.01;39.26
58295;BME280;45705;55.592;37.460;2024-03-22T10:23:28;99090.34;;;8.48;37.96
58295;BME280;45705;55.592;37.460;2024-03-22T10:25:58;99087.56;;;8.53;37.36
58295;BME280;45705;55.592;37.460;2024-03-22T10:28:25;99079.09;;;8.87;36.91
58295;BME280;45705;55.592;37.460;2024-03-22T10:30:51;99069.56;;;8.90;37.25
58295;BME280;45705;55.592;37.460;2024-03-22T10:33:20;99068.31;;;9.15;37.24
58295;BME280;45705;55.592;37.460;2024-03-22T10:35:53;99061.31;;;8.95;37.15
58295;BME280;45705;55.592;37.460;2024-03-22T10:38:20;99057.34;;;9.48;36.71
58295;BME280;45705;55.592;37.460;2024-03-22T10:40:48;99049.66;;;9.64;36.71
58295;BME280;45705;55.592;37.460;2024-03-22T10:43:15;99055.91;;;9.51;37.09
58295;BME280;45705;55.592;37.460;2024-03-22T10:45:42;99056.09;;;9.68;36.97
58295;BME280;45705;55.592;37.460;2024-03-22T10:48:12;99052.03;;;9.29;37.75
58295;BME280;45705;55.592;37.460;2024-03-22T10:50:41;99044.47;;;9.26;38.50
58295;BME280;45705;55.592;37.460;2024-03-22T10:53:16;99049.50;;;9.46;37.81
58295;BME280;45705;55.592;37.460;2024-03-22T10:55:47;99046.09;;;9.27;38.31
58295;BME280;45705;55.592;37.460;2024-03-22T10:58:18;99029.38;;;9.48;38.24
58295;BME280;45705;55.592;37.460;2024-03-22T11:00:44;99036.84;;;9.28;38.99
58295;BME280;45705;55.592;37.460;2024-03-22T11:03:10;99017.34;;;9.26;37.87
58295;BME280;45705;55.592;37.460;2024-03-22T11:05:55;99023.78;;;8.89;38.79
58295;BME280;45705;55.592;37.460;2024-03-22T11:08:28;99024.97;;;9.38;38.06
58295;BME280;45705;55.592;37.460;2024-03-22T11:10:56;99022.56;;;9.36;38.05
58295;BME280;45705;55.592;37.460;2024-03-22T11:13:22;99012.91;;;9.30;39.21
58295;BME280;45705;55.592;37.460;2024-03-22T11:15:49;99024.56;;;9.44;38.78
58295;BME280;45705;55.592;37.460;2024-03-22T11:18:16;99006.09;;;9.19;38.49
58295;BME280;45705;55.592;37.460;2024-03-22T11:20:42;99004.50;;;9.18;38.93
58295;BME280;45705;55.592;37.460;2024-03-22T11:23:09;99007.06;;;9.51;38.37
58295;BME280;45705;55.592;37.460;2024-03-22T11:25:35;98985.13;;;9.61;38.37
58295;BME280;45705;55.592;37.460;2024-03-22T11:28:02;98989.59;;;9.79;38.22
58295;BME280;45705;55.592;37.460;2024-03-22T11:30:28;98983.69;;;9.27;38.12
58295;BME280;45705;55.592;37.460;2024-03-22T11:32:55;98992.38;;;9.52;37.23
58295;BME280;45705;55.592;37.460;2024-03-22T11:35:21;98996.63;;;9.30;37.85
58295;BME280;45705;55.592;37.460;2024-03-22T11:37:47;98985.31;;;9.64;37.99
58295;BME280;45705;55.592;37.460;2024-03-22T11:40:14;98970.50;;;9.34;37.67
58295;BME280;45705;55.592;37.460;2024-03-22T11:42:51;98975.25;;;9.65;37.45
58295;BME280;45705;55.592;37.460;2024-03-22T11:45:19;98973.19;;;9.84;37.42
58295;BME280;45705;55.592;37.460;2024-03-22T11:47:46;98968.72;;;9.89;37.45
58295;BME280;45705;55.592;37.460;2024-03-22T11:50:13;98962.84;;;9.50;37.37
58295;BME280;45705;55.592;37.460;2024-03-22T11:52:43;98950.72;;;9.70;36.95
58295;BME280;45705;55.592;37.460;2024-03-22T11:55:12;98952.56;;;9.61;37.28
58295;BME280;45705;55.592;37.460;2024-03-22T11:57:38;98938.03;;;9.79;37.22
58295;BME280;45705;55.592;37.460;2024-03-22T12:00:04;98938.25;;;9.69;36.69
58295;BME280;45705;55.592;37.460;2024-03-22T12:02:40;98938.03;;;9.79;36.38
58295;BME280;45705;55.592;37.460;2024-03-22T12:05:09;98928.53;;;9.18;37.47
58295;BME280;45705;55.592;37.460;2024-03-22T12:07:36;98928.78;;;9.07;37.40
58295;BME280;45705;55.592;37.460;2024-03-22T12:10:04;98916.06;;;9.17;37.54
58295;BME280;45705;55.592;37.460;2024-03-22T12:12:32;98920.41;;;9.54;37.20
58295;BME280;45705;55.592;37.460;2024-03-22T12:14:58;98921.50;;;9.17;37.73
58295;BME280;45705;55.592;37.460;2024-03-22T12:17:24;98907.28;;;9.11;38.04
58295;BME280;45705;55.592;37.460;2024-03-22T12:19:49;98902.31;;;9.27;37.70
58295;BME280;45705;55.592;37.460;2024-03-22T12:22:15;98890.63;;;9.40;37.48
58295;BME280;45705;55.592;37.460;2024-03-22T12:24:41;98889.91;;;8.98;37.90
58295;BME280;45705;55.592;37.460;2024-03-22T12:27:07;98888.59;;;8.82;37.81
58295;BME280;45705;55.592;37.460;2024-03-22T12:29:34;98877.91;;;8.63;38.05
58295;BME280;45705;55.592;37.460;2024-03-22T12:32:02;98872.97;;;8.79;37.91
58295;BME280;45705;55.592;37.460;2024-03-22T12:34:30;98866.38;;;8.43;38.10
58295;BME280;45705;55.592;37.460;2024-03-22T12:36:57;98866.53;;;8.47;38.40
58295;BME280;45705;55.592;37.460;2024-03-22T12:39:23;98867.75;;;8.69;37.78
58295;BME280;45705;55.592;37.460;2024-03-22T12:41:49;98855.91;;;8.64;37.42
58295;BME280;45705;55.592;37.460;2024-03-22T12:44:15;98847.91;;;8.45;37.58
58295;BME280;45705;55.592;37.460;2024-03-22T12:46:41;98858.31;;;8.52;37.52
58295;BME280;45705;55.592;37.460;2024-03-22T12:49:08;98831.31;;;8.47;37.71
58295;BME280;45705;55.592;37.460;2024-03-22T12:51:35;98840.84;;;8.58;37.12
58295;BME280;45705;55.592;37.460;2024-03-22T12:54:01;98838.84;;;8.50;37.37